Flight Track Log - Related Links

Times and Time Zones

All times are in EDT time to prevent confusion due to time zone crossing. See the UAL407 flight status page for this flight to view local times or setup timezone preferences in your user account.

Time Position Orientation Groundspeed Altitude Reporting Facility
EDT Latitude Longitude Course Direction KTS MPH feet Rate Location/Type
Tue 06:04:24 PM 42.7319 -73.8081 283° West 140 161 1,000  Level Boston Center
Tue 06:05:13 PM 42.6986 -73.8044 175° South 151 174 2,200 1,912 Climbing Boston Center
Tue 06:05:55 PM 42.6650 -73.8236 203° Southwest 214 246 3,900 2,327 Climbing Boston Center
Tue 06:06:51 PM 42.6892 -73.8947 295° West 253 291 6,000 3,207 Climbing Boston Center
Tue 06:07:00 PM 42.8087 -74.1977 284° West  Level FlightAware Approximate
Tue 06:07:51 PM 42.7486 -73.9725 316° Northwest 275 316 10,100  Level Boston Center
Tue 06:08:00 PM 42.8331 -74.3322 284° West  Level FlightAware Approximate
Tue 06:08:51 PM 42.8142 -74.0592 316° Northwest 302 348 12,000  Level Boston Center
Tue 06:09:00 PM 42.8557 -74.4673 283° West  Level FlightAware Approximate
Tue 06:09:51 PM 42.9000 -74.1747 315° West 359 413 14,900  Level Boston Center
Tue 06:11:03 PM 42.9261 -74.3597 281° West 391 450 18,100 2,227 Climbing Boston Center
Tue 06:12:03 PM 42.9467 -74.4967 282° West 403 464 19,800 1,800 Climbing Boston Center
Tue 06:13:03 PM 42.9664 -74.6675 279° West 430 495 21,700 1,400 Climbing Boston Center
Tue 06:14:03 PM 42.9919 -74.8444 281° West 456 525 22,600 1,150 Climbing Boston Center
Tue 06:15:03 PM 43.0150 -75.0300 280° West 479 551 24,000 1,300 Climbing Boston Center
Tue 06:16:03 PM 43.0378 -75.2156 280° West 491 565 25,200 1,350 Climbing Boston Center
Tue 06:17:03 PM 43.0622 -75.3986 280° West 497 572 26,700 1,600 Climbing Boston Center
Tue 06:18:03 PM 43.0844 -75.5844 279° West 502 578 28,400 2,200 Climbing Boston Center
Tue 06:19:03 PM 43.1086 -75.7622 281° West 491 565 31,100 2,300 Climbing Boston Center
Tue 06:20:03 PM 43.1283 -75.9339 279° West 473 544 33,000 1,450 Climbing Boston Center
Tue 06:21:03 PM 43.1500 -76.1061 280° West 468 539 34,000 1,031 Climbing Boston Center
Tue 06:22:46 PM 43.1586 -76.4219 272° West 468 539 35,800 1,074 Climbing Cleveland Center
Tue 06:23:45 PM 43.1608 -76.6011 271° West 468 539 36,900 1,109 Climbing Cleveland Center
Tue 06:24:45 PM 43.1583 -76.7778 269° West 468 539 38,000 550 Climbing Cleveland Center
Tue 06:25:45 PM 43.1600 -76.9542 271° West 468 539 38,000  Level Cleveland Center
Tue 06:26:45 PM 43.1589 -77.1281 270° West 468 539 38,000  Level Cleveland Center
Tue 06:27:45 PM 43.1558 -77.3075 269° West 473 544 38,000  Level Cleveland Center
Tue 06:28:45 PM 43.1544 -77.4839 269° West 473 544 38,000  Level Cleveland Center
Tue 06:29:46 PM 43.1528 -77.6633 269° West 473 544 38,000  Level Cleveland Center
Tue 06:30:45 PM 43.1508 -77.8400 269° West 478 550 38,000  Level Cleveland Center
Tue 06:31:45 PM 43.1489 -78.0194 269° West 478 550 38,000  Level Cleveland Center
Tue 06:32:45 PM 43.1464 -78.1986 269° West 478 550 38,000  Level Cleveland Center
Tue 06:33:45 PM 43.1436 -78.3781 269° West 478 550 38,000  Level Cleveland Center
Tue 06:34:45 PM 43.1364 -78.5519 267° West 478 550 38,000  Level Cleveland Center
Tue 06:35:45 PM 43.1331 -78.7314 269° West 478 550 38,000  Level Cleveland Center
Tue 06:36:45 PM 43.1275 -78.9136 268° West 478 550 38,000  Level Cleveland Center
Tue 06:37:44 PM 43.1167 -79.0667 265° West 470 541 38,000  Level Toronto Center
Tue 06:38:44 PM 43.1000 -79.2500 263° West 470 541 38,000  Level Toronto Center
Tue 06:39:44 PM 43.1000 -79.4333 270° West 470 541 38,000  Level Toronto Center
Tue 06:40:44 PM 43.1000 -79.6167 270° West 470 541 38,000  Level Toronto Center
Tue 06:41:44 PM 43.0833 -79.8000 263° West 470 541 38,000 -50 Level Toronto Center
Tue 06:42:44 PM 43.0833 -79.9833 270° West 470 541 37,900  Descending Toronto Center
Tue 06:43:44 PM 43.0667 -80.1333 261° West 480 552 38,000 50 Climbing Toronto Center
Tue 06:44:45 PM 43.0667 -80.3333 270° West 470 541 38,000  Level Toronto Center
Tue 06:45:44 PM 43.0667 -80.5000 270° West 470 541 38,000  Level Toronto Center
Tue 06:46:44 PM 43.0500 -80.6833 263° West 480 552 38,000  Level Toronto Center
Tue 06:47:44 PM 43.0333 -80.8667 263° West 480 552 38,000  Level Toronto Center
Tue 06:48:44 PM 43.0167 -81.0500 263° West 480 552 38,000  Level Toronto Center
Tue 06:49:45 PM 43.0167 -81.2333 270° West 470 541 38,000 -306 Level Toronto Center
Tue 06:51:21 PM 43.0314 -81.5375 274° West 474 545 37,200 -807 Descending Cleveland Center
Tue 06:51:44 PM 43.0167 -81.6000 252° West 480 552 36,400 -867 Descending Toronto Center
Tue 06:52:44 PM 43.0167 -81.7833 270° West 480 552 36,000 -198 Descending Toronto Center
Tue 06:53:45 PM 43.0000 -81.9667 263° West 480 552 36,000  Level Toronto Center
Tue 06:54:44 PM 43.0000 -82.1333 270° West 480 552 36,000  Level Toronto Center
Tue 06:55:44 PM 43.0000 -82.3167 270° West 480 552 36,000  Level Toronto Center
Tue 06:56:44 PM 43.0000 -82.5000 270° West 480 552 36,000  Level Toronto Center
Tue 06:57:21 PM 43.0047 -82.6272 273° West 474 545 36,000  Level Cleveland Center
Tue 06:58:21 PM 42.9972 -82.8114 267° West 479 551 36,000 -1,000 Level Cleveland Center
Tue 06:59:21 PM 42.9936 -82.9903 268° West 479 551 34,000 -2,000 Descending Cleveland Center
Tue 07:00:21 PM 42.9856 -83.1717 267° West 479 551 32,000 -1,000 Descending Cleveland Center
Tue 07:01:21 PM 42.9792 -83.3558 267° West 479 551 32,000  Level Cleveland Center
Tue 07:02:21 PM 42.9725 -83.5400 267° West 486 559 32,000  Level Cleveland Center
Tue 07:03:21 PM 42.9656 -83.7242 267° West 486 559 32,000  Level Cleveland Center
Tue 07:04:21 PM 42.9500 -83.9078 263° West 486 559 32,000  Level Cleveland Center
Tue 07:05:21 PM 42.9342 -84.0942 263° West 492 566 32,000  Level Cleveland Center
Tue 07:06:21 PM 42.9117 -84.2772 261° West 497 572 32,000  Level Cleveland Center
Tue 07:07:21 PM 42.8961 -84.4378 263° West 497 572 32,000  Level Cleveland Center
Tue 07:08:36 PM 42.8742 -84.6842 263° West 491 565 32,000  Level Chicago Center
Tue 07:09:38 PM 42.8547 -84.8661 262° West 486 559 32,000  Level Chicago Center
Tue 07:10:40 PM 42.8356 -85.0483 262° West 487 560 32,000  Level Chicago Center
Tue 07:11:42 PM 42.8158 -85.2308 262° West 486 559 32,000  Level Chicago Center
Tue 07:12:44 PM 42.7961 -85.4133 262° West 487 560 32,000  Level Chicago Center
Tue 07:13:47 PM 42.7697 -85.5939 259° West 486 559 32,000 -720 Level Chicago Center
Tue 07:14:49 PM 42.7297 -85.8092 256° West 485 558 30,500 -2,661 Descending Chicago Center
Tue 07:15:51 PM 42.6972 -85.9872 256° West 482 555 26,500 -4,016 Descending Chicago Center
Tue 07:16:53 PM 42.6653 -86.1653 256° West 481 554 22,200 -3,387 Descending Chicago Center
Tue 07:17:55 PM 42.6322 -86.3358 255° West 469 540 19,500 -2,032 Descending Chicago Center
Tue 07:18:57 PM 42.6008 -86.5000 255° West 451 519 18,000 -1,392 Descending Chicago Center
Tue 07:20:00 PM 42.5711 -86.6597 256° West 438 504 16,600 -1,392 Descending Chicago Center
Tue 07:21:02 PM 42.5378 -86.8153 254° West 433 498 15,100 -1,597 Descending Chicago Center
Tue 07:22:04 PM 42.4889 -86.9908 249° West 417 480 13,300 -1,742 Descending Chicago Center
Tue 07:23:06 PM 42.4517 -87.1214 249° West 372 428 11,500 -1,597 Descending Chicago Center
Tue 07:24:08 PM 42.4172 -87.2453 249° West 356 410 10,000 -677 Descending Chicago Center
Tue 07:25:10 PM 42.3842 -87.3706 250° West 354 407 10,100  Climbing Chicago Center
Tue 07:26:12 PM 42.3458 -87.5042 249° West 355 409 10,000 -48 Descending Chicago Center
Tue 07:27:14 PM 42.2806 -87.5972 227° Southwest 357 411 10,000  Level Chicago Center
Tue 07:28:16 PM 42.2042 -87.6775 218° Southwest 352 405 10,000 48 Level Chicago Center
Tue 07:29:18 PM 42.1139 -87.7717 218° Southwest 346 398 10,100 -1,248 Climbing Chicago Center
Tue 07:30:21 PM 42.0833 -87.8667 247° West 295 339 7,400 -1,512 Descending Chicago TRACON
Tue 07:31:21 PM 42.1000 -87.9667 283° West 267 307 7,000 -500 Descending Chicago TRACON
Tue 07:32:21 PM 42.0833 -88.0500 255° West 232 267 6,400 -1,100 Descending Chicago TRACON
Tue 07:33:21 PM 42.0833 -88.1333 270° West 231 266 4,800 -1,579 Descending Chicago TRACON
Tue 07:34:15 PM 42.0167 -88.1333 180° South 229 264 3,400 -1,043 Descending Chicago TRACON
Tue 07:35:16 PM 42.0000 -88.0667 109° East 198 228 2,800 -590 Descending Chicago TRACON

Login

Don't have an account? Register now (free) for customized features, flight alerts, and more!